Time;durP1;ratioP1;P1;durP2;ratioP2;P2;SDS_P1;SDS_P2;PMS_P1;PMS_P2;Temp;Humidity;BMP_temperature;BMP_pressure;BME280_temperature;BME280_humidity;BME280_pressure;Samples;Min_cycle;Max_cycle;Signal;HPM_P1;HPM_P2
2022/06/02 00:00:59;;;;;;;4.15;3.75;;;;;;;10.56;82.48;101575.09;5014862;28;20028;-47
2022/06/02 00:03:41;;;;;;;4.18;3.78;;;;;;;10.58;82.54;101578.38;5013794;28;20057;-49
2022/06/02 00:06:44;;;;;;;4.72;3.90;;;;;;;10.57;82.39;101575.91;5015919;28;20021;-47
2022/06/02 00:09:33;;;;;;;5.25;4.18;;;;;;;10.58;82.47;101583.72;5010451;28;20037;-47
2022/06/02 00:12:11;;;;;;;6.20;5.20;;;;;;;10.54;83.33;101589.78;5019074;28;20510;-48
2022/06/02 00:15:10;;;;;;;6.10;4.72;;;;;;;10.55;83.55;101589.53;5015212;28;20026;-48
2022/06/02 00:17:49;;;;;;;6.88;5.05;;;;;;;10.59;83.41;101592.56;5029925;28;20030;-48
2022/06/02 00:20:56;;;;;;;5.15;4.45;;;;;;;10.56;83.69;101593.84;5012317;28;20772;-47
2022/06/02 00:23:36;;;;;;;5.45;4.95;;;;;;;10.61;83.36;101595.88;4985088;28;20045;-47
2022/06/02 00:26:22;;;;;;;5.50;5.00;;;;;;;10.61;83.27;101598.56;5011198;28;20038;-47
2022/06/02 00:29:08;;;;;;;5.75;5.13;;;;;;;10.61;83.77;101597.75;5018469;28;20025;-46
2022/06/02 00:31:53;;;;;;;5.63;5.13;;;;;;;10.62;84.77;101599.38;5020386;28;20116;-46
2022/06/02 00:34:37;;;;;;;6.78;4.93;;;;;;;10.69;84.76;101600.91;5016590;28;20021;-48
2022/06/02 00:37:11;;;;;;;6.95;5.45;;;;;;;10.73;84.42;101606.63;5017794;28;20057;-50
2022/06/02 00:39:38;;;;;;;6.32;5.25;;;;;;;10.76;84.55;101606.16;5017239;28;20098;-49
2022/06/02 00:42:28;;;;;;;5.68;5.00;;;;;;;10.73;85.16;101607.44;5014343;28;20050;-48
2022/06/02 00:44:57;;;;;;;6.72;4.90;;;;;;;10.76;85.16;101606.97;5014318;28;20463;-48
2022/06/02 00:47:47;;;;;;;6.50;4.72;;;;;;;10.73;85.54;101611.97;5015411;28;20388;-48
2022/06/02 00:50:44;;;;;;;6.57;4.60;;;;;;;10.72;85.77;101615.72;5017823;28;20022;-48
2022/06/02 00:53:32;;;;;;;7.47;5.25;;;;;;;10.75;85.77;101620.59;5016534;28;20061;-47
2022/06/02 00:59:10;;;;;;;10.02;7.10;;;;;;;10.76;88.34;101617.69;5018189;28;20392;-47
2022/06/02 01:01:36;;;;;;;9.55;7.80;;;;;;;10.80;90.00;101624.25;5015630;28;20037;-47
2022/06/02 01:04:10;;;;;;;8.63;7.57;;;;;;;10.89;90.28;101627.41;5016588;28;20033;-48
2022/06/02 01:06:51;;;;;;;9.85;8.10;;;;;;;10.93;90.17;101623.22;5016201;28;20037;-47
2022/06/02 01:09:24;;;;;;;12.43;9.07;;;;;;;10.94;90.98;101637.44;5018505;28;20027;-48
2022/06/02 01:12:13;;;;;;;11.77;8.95;;;;;;;10.95;91.64;101647.13;5018740;28;20505;-50
2022/06/02 01:15:06;;;;;;;12.80;9.85;;;;;;;10.99;91.89;101638.41;5013847;28;20468;-49
2022/06/02 01:17:56;;;;;;;10.18;8.77;;;;;;;11.05;91.40;101642.03;5015539;28;20398;-49
2022/06/02 01:20:56;;;;;;;11.88;8.90;;;;;;;11.04;91.47;101638.53;5018280;28;20096;-48
2022/06/02 01:23:30;;;;;;;9.30;7.75;;;;;;;11.07;90.73;101638.09;5016913;28;20490;-48
2022/06/02 01:26:16;;;;;;;8.77;7.72;;;;;;;11.10;90.53;101652.88;5017194;28;20049;-50
2022/06/02 01:29:31;;;;;;;8.15;7.05;;;;;;;11.07;90.59;101646.13;5018585;28;20034;-48
2022/06/02 01:32:04;;;;;;;9.57;7.65;;;;;;;11.01;91.34;101647.06;5018518;28;20447;-49
2022/06/02 01:34:38;;;;;;;8.50;7.05;;;;;;;11.05;91.32;101648.22;5014776;28;20053;-48
2022/06/02 01:37:07;;;;;;;10.45;7.95;;;;;;;11.09;90.78;101649.41;5017075;28;20104;-48
2022/06/02 01:39:32;;;;;;;8.50;7.45;;;;;;;11.12;90.57;101654.28;5018725;28;20534;-48
2022/06/02 01:42:08;;;;;;;8.93;7.40;;;;;;;11.10;90.71;101656.38;5015440;28;20029;-48
2022/06/02 01:44:41;;;;;;;9.70;7.85;;;;;;;11.13;90.48;101655.09;5016120;28;20029;-50
2022/06/02 01:47:27;;;;;;;10.82;7.38;;;;;;;11.12;90.46;101648.94;5018175;28;20594;-48
2022/06/02 01:50:14;;;;;;;9.13;7.85;;;;;;;11.17;90.59;101654.44;5015205;28;20168;-49
2022/06/02 01:53:12;;;;;;;8.82;7.93;;;;;;;11.18;90.29;101652.56;5015607;28;20099;-48
2022/06/02 01:55:49;;;;;;;9.07;7.93;;;;;;;11.20;90.27;101658.53;5015188;28;20444;-48
2022/06/02 01:58:38;;;;;;;8.98;7.63;;;;;;;11.23;90.30;101652.69;5015922;28;20084;-48
2022/06/02 02:01:30;;;;;;;10.50;7.30;;;;;;;11.24;90.36;101657.00;5013933;28;20036;-48
2022/06/02 02:04:06;;;;;;;10.75;7.07;;;;;;;11.23;90.30;101652.69;5012641;28;20138;-51
2022/06/02 02:06:35;;;;;;;10.07;7.18;;;;;;;11.28;89.92;101657.38;5014870;28;20026;-47
2022/06/02 02:09:32;;;;;;;8.75;7.53;;;;;;;11.19;89.63;101655.03;5013371;28;20033;-48
2022/06/02 02:12:00;;;;;;;9.65;7.45;;;;;;;11.22;89.57;101658.28;5017290;28;20079;-48
2022/06/02 02:14:37;;;;;;;8.65;7.15;;;;;;;11.18;89.83;101652.56;5016648;28;20055;-49
2022/06/02 02:17:35;;;;;;;9.57;7.75;;;;;;;11.14;90.23;101662.97;5017082;28;20044;-49
2022/06/02 02:20:28;;;;;;;11.88;8.43;;;;;;;11.11;90.05;101662.56;5016829;28;20026;-48
2022/06/02 02:22:57;;;;;;;10.60;8.10;;;;;;;11.13;90.13;101666.69;5013602;28;20026;-47
2022/06/02 02:25:42;;;;;;;9.98;8.32;;;;;;;11.11;89.85;101673.28;5013035;28;20153;-48
2022/06/02 02:28:19;;;;;;;10.05;7.90;;;;;;;11.15;90.05;101664.59;5017649;28;20099;-48
2022/06/02 02:30:44;;;;;;;9.50;8.50;;;;;;;11.16;89.61;101658.19;5019093;28;20099;-48
2022/06/02 02:33:36;;;;;;;8.90;8.00;;;;;;;11.15;89.56;101661.09;5016779;28;20026;-47
2022/06/02 02:36:32;;;;;;;9.75;8.02;;;;;;;11.13;89.68;101655.09;5018139;28;20033;-46
2022/06/02 02:39:25;;;;;;;11.18;9.05;;;;;;;11.16;89.34;101663.53;5011707;28;20026;-49
2022/06/02 02:42:35;;;;;;;11.60;9.15;;;;;;;11.17;89.53;101661.66;5011750;28;20045;-47
2022/06/02 02:45:32;;;;;;;10.45;8.57;;;;;;;11.15;88.82;101664.59;4970446;28;20070;-48
2022/06/02 02:48:07;;;;;;;13.10;9.52;;;;;;;11.15;89.18;101667.28;4974206;28;20096;-47
2022/06/02 02:50:38;;;;;;;;;;;;;;;11.10;89.68;101677.03;5005311;28;20034;-48
2022/06/02 02:53:28;;;;;;;9.40;8.23;;;;;;;11.14;89.20;101673.69;5018586;28;19923;-49
2022/06/02 02:56:16;;;;;;;12.40;9.00;;;;;;;11.17;88.61;101675.91;5008515;28;20029;-48
2022/06/02 02:58:53;;;;;;;12.48;9.52;;;;;;;11.12;88.75;101673.06;5017009;28;20091;-48
2022/06/02 03:01:41;;;;;;;11.13;8.68;;;;;;;11.10;89.03;101683.22;5013640;28;20112;-47
2022/06/02 03:04:18;;;;;;;11.10;9.52;;;;;;;11.04;89.60;101681.44;4986780;28;20547;-48
2022/06/02 03:06:45;;;;;;;10.82;9.07;;;;;;;11.06;89.08;101687.41;5015316;28;20048;-47
2022/06/02 03:09:38;;;;;;;11.60;9.23;;;;;;;11.02;89.08;101683.53;5012766;28;20022;-47
2022/06/02 03:12:36;;;;;;;10.10;8.13;;;;;;;11.03;88.92;101687.88;5011980;28;20041;-48
2022/06/02 03:15:05;;;;;;;10.13;8.93;;;;;;;11.04;89.00;101702.91;5009226;28;20041;-48
2022/06/02 03:17:43;;;;;;;10.20;7.85;;;;;;;11.00;88.66;101699.06;5016236;28;20491;-47
2022/06/02 03:20:33;;;;;;;9.20;8.23;;;;;;;10.93;89.07;101706.34;5012740;28;20030;-48
2022/06/02 03:23:19;;;;;;;9.00;7.95;;;;;;;10.94;89.26;101712.53;5015400;28;20037;-47
2022/06/02 03:26:00;;;;;;;11.90;8.02;;;;;;;10.89;89.48;101718.56;5015013;28;20029;-47
2022/06/02 03:28:59;;;;;;;10.18;7.88;;;;;;;10.86;89.74;101719.03;5016609;28;20057;-48
2022/06/02 03:31:43;;;;;;;9.32;8.32;;;;;;;10.87;89.96;101724.16;5018169;28;20029;-47
2022/06/02 03:34:42;;;;;;;10.50;8.35;;;;;;;10.87;89.75;101732.22;5014878;28;20167;-47
2022/06/02 03:37:37;;;;;;;10.73;8.38;;;;;;;10.82;89.96;101733.94;5005234;28;20041;-48
2022/06/02 03:40:59;;;;;;;9.73;8.18;;;;;;;10.81;90.28;101735.00;5013341;28;20124;-48
2022/06/02 03:43:34;;;;;;;8.57;7.68;;;;;;;10.85;89.95;101741.53;4984633;28;20133;-47
2022/06/02 03:46:26;;;;;;;11.32;8.32;;;;;;;10.85;89.79;101733.50;5017817;28;20600;-47
2022/06/02 03:49:11;;;;;;;9.98;8.35;;;;;;;10.87;89.74;101732.22;5013750;28;21000;-47
2022/06/02 03:51:39;;;;;;;10.45;7.85;;;;;;;10.96;89.58;101732.72;5017175;28;20048;-50
2022/06/02 03:54:31;;;;;;;10.05;8.80;;;;;;;11.00;88.90;101736.59;5012000;28;20025;-47
2022/06/02 03:57:34;;;;;;;11.52;8.73;;;;;;;11.02;88.72;101742.53;5018774;28;20548;-47
2022/06/02 04:00:07;;;;;;;10.13;7.82;;;;;;;11.04;88.95;101750.34;5015261;28;20030;-47
2022/06/02 04:02:55;;;;;;;12.65;7.95;;;;;;;11.04;88.75;101753.84;5016462;28;20299;-47
2022/06/02 04:05:32;;;;;;;9.93;8.40;;;;;;;11.11;88.22;101748.41;5014440;28;20030;-47
2022/06/02 04:08:27;;;;;;;13.00;9.10;;;;;;;11.07;88.71;101752.59;5015928;28;20435;-48
2022/06/02 04:11:11;;;;;;;10.70;8.20;;;;;;;11.05;89.19;101760.84;5015902;28;20044;-47
2022/06/02 04:14:07;;;;;;;10.65;8.20;;;;;;;11.03;89.74;101773.69;5013754;28;20071;-47
2022/06/02 04:16:33;;;;;;;12.18;9.02;;;;;;;11.10;89.31;101773.59;5016426;28;20034;-47
2022/06/02 04:22:32;;;;;;;10.02;8.60;;;;;;;11.07;90.17;101774.84;5012574;28;20032;-47
2022/06/02 04:25:34;;;;;;;11.38;9.18;;;;;;;11.11;89.98;101778.72;5019444;28;20030;-47
2022/06/02 04:28:34;;;;;;;10.10;8.70;;;;;;;11.13;89.55;101784.69;5018302;28;20486;-47
2022/06/02 04:31:37;;;;;;;11.32;8.95;;;;;;;11.16;89.72;101789.59;5021552;28;20033;-47
2022/06/02 04:34:34;;;;;;;12.15;9.15;;;;;;;11.18;89.38;101792.88;5018641;28;20032;-48
2022/06/02 04:37:16;;;;;;;13.15;9.55;;;;;;;11.25;89.44;101798.16;5018262;28;20025;-48
2022/06/02 04:40:00;;;;;;;14.40;9.45;;;;;;;11.16;90.42;101789.59;5015247;28;20029;-47
2022/06/02 04:42:45;;;;;;;12.55;10.55;;;;;;;11.05;91.13;101800.28;5022116;28;20023;-47
2022/06/02 04:45:22;;;;;;;14.15;10.50;;;;;;;11.16;90.42;101802.19;5015850;28;20030;-47
2022/06/02 04:48:05;;;;;;;13.30;9.60;;;;;;;11.07;90.62;101801.69;5017846;28;20022;-46
2022/06/02 04:50:51;;;;;;;15.55;10.15;;;;;;;10.99;91.56;101811.91;5014857;28;20126;-47
2022/06/02 04:53:24;;;;;;;12.88;10.07;;;;;;;11.17;90.63;101807.34;5017890;28;20399;-47
2022/06/02 04:56:11;;;;;;;14.65;11.10;;;;;;;11.27;90.17;101806.78;5014240;28;20045;-47
2022/06/02 04:59:10;;;;;;;14.63;11.35;;;;;;;11.36;90.00;101815.34;5013094;28;20566;-47
2022/06/02 05:01:41;;;;;;;15.45;11.38;;;;;;;11.47;89.34;101818.06;5013234;28;20052;-47
2022/06/02 05:04:27;;;;;;;15.35;10.85;;;;;;;11.50;89.29;101822.19;5017223;28;20037;-49
2022/06/02 05:07:03;;;;;;;14.32;11.10;;;;;;;11.52;89.31;101828.13;5010492;28;20379;-46
2022/06/02 05:09:41;;;;;;;16.38;12.20;;;;;;;11.56;88.67;101821.25;5015745;28;20021;-47
2022/06/02 05:12:36;;;;;;;16.45;11.85;;;;;;;11.65;88.30;101835.97;5014279;28;20495;-48
2022/06/02 05:15:20;;;;;;;;;;;;;;;11.66;88.09;101821.50;5015157;28;20140;-47
2022/06/02 05:18:00;;;;;;;16.60;12.45;;;;;;;11.66;88.80;101810.78;5018050;28;20432;-47
2022/06/02 05:20:47;;;;;;;17.60;12.60;;;;;;;11.65;88.63;101813.69;5015761;28;20072;-47
2022/06/02 05:23:42;;;;;;;16.48;12.68;;;;;;;11.80;88.05;101824.84;5011813;28;20065;-47
2022/06/02 05:26:46;;;;;;;17.23;12.55;;;;;;;11.79;88.15;101828.59;5017675;28;20025;-47
2022/06/02 05:29:15;;;;;;;21.02;13.13;;;;;;;11.88;87.76;101821.84;4992258;28;20076;-48
2022/06/02 05:32:01;;;;;;;15.73;12.80;;;;;;;11.93;87.32;101831.91;5013093;28;20435;-47
2022/06/02 05:34:45;;;;;;;19.70;13.95;;;;;;;12.01;87.29;101834.22;5013226;28;20053;-47
2022/06/02 05:37:17;;;;;;;16.70;13.10;;;;;;;12.08;87.58;101841.16;5012121;28;20028;-46
2022/06/02 05:40:02;;;;;;;18.63;14.07;;;;;;;12.12;87.20;101841.50;5013692;28;20033;-47
2022/06/02 05:42:46;;;;;;;19.20;13.85;;;;;;;12.16;87.14;101836.47;5015139;28;20029;-46
2022/06/02 05:45:14;;;;;;;18.25;11.95;;;;;;;12.29;87.42;101839.78;5015336;28;20041;-47
2022/06/02 05:48:07;;;;;;;18.70;13.30;;;;;;;12.40;86.95;101838.16;5019302;28;20099;-47
2022/06/02 05:50:45;;;;;;;18.70;13.27;;;;;;;12.42;86.06;101848.66;5018621;28;20068;-47
2022/06/02 05:53:39;;;;;;;18.27;13.43;;;;;;;12.37;85.65;101846.66;5017218;28;20065;-47
2022/06/02 05:56:26;;;;;;;18.75;12.63;;;;;;;12.44;85.88;101851.94;5017403;28;20040;-46
2022/06/02 05:59:09;;;;;;;17.83;13.80;;;;;;;12.45;85.51;101850.88;5014961;28;20104;-46
2022/06/02 06:01:56;;;;;;;18.88;14.82;;;;;;;12.45;85.67;101854.38;5016308;28;21473;-46
2022/06/02 06:04:22;;;;;;;21.77;15.13;;;;;;;12.54;85.46;101861.03;5020841;28;20030;-47
2022/06/02 06:07:01;;;;;;;20.88;14.55;;;;;;;12.58;85.69;101850.66;5015478;28;20506;-46
2022/06/02 06:09:46;;;;;;;18.30;13.88;;;;;;;12.62;85.88;101858.00;5023082;28;20303;-46
2022/06/02 06:12:35;;;;;;;22.38;15.32;;;;;;;12.73;85.51;101859.03;5021356;28;20029;-46
2022/06/02 06:15:22;;;;;;;18.88;13.88;;;;;;;12.67;84.11;101862.69;5020947;28;20083;-47
2022/06/02 06:18:08;;;;;;;18.38;14.55;;;;;;;12.76;84.49;101852.41;5015241;28;20083;-47
2022/06/02 06:20:45;;;;;;;19.70;14.27;;;;;;;12.75;84.01;101866.88;5016378;28;20029;-48
2022/06/02 06:23:42;;;;;;;18.20;13.90;;;;;;;12.68;83.55;101867.81;5019688;28;20391;-46
2022/06/02 06:26:29;;;;;;;18.63;14.00;;;;;;;12.74;83.65;101882.19;5019869;28;20025;-46
2022/06/02 06:29:01;;;;;;;17.42;13.15;;;;;;;12.90;83.78;101875.28;5023425;28;20116;-47
2022/06/02 06:32:08;;;;;;;16.55;13.68;;;;;;;13.01;83.78;101885.22;5015536;28;20076;-46
2022/06/02 06:34:33;;;;;;;19.38;14.00;;;;;;;13.02;82.75;101884.16;5013598;28;20025;-46
2022/06/02 06:37:24;;;;;;;21.42;14.40;;;;;;;12.94;82.52;101889.91;5017824;28;20026;-47
2022/06/02 06:40:21;;;;;;;16.42;12.65;;;;;;;12.85;82.34;101896.69;5014752;28;20510;-46
2022/06/02 06:43:03;;;;;;;19.10;13.45;;;;;;;12.79;83.04;101901.16;4977829;28;20040;-46
2022/06/02 06:46:05;;;;;;;16.80;11.90;;;;;;;12.75;82.59;101899.13;5013971;28;20052;-46
2022/06/02 06:48:43;;;;;;;18.25;12.70;;;;;;;12.75;82.68;101909.91;5016610;28;20172;-46
2022/06/02 06:51:35;;;;;;;19.38;12.95;;;;;;;12.77;82.68;101908.63;5013462;28;20041;-44
2022/06/02 06:54:05;;;;;;;18.15;12.20;;;;;;;12.88;82.91;101906.97;5017413;28;20026;-44
2022/06/02 06:57:03;;;;;;;14.20;10.90;;;;;;;13.02;82.49;101913.75;5015756;28;20495;-45
2022/06/02 06:59:47;;;;;;;15.35;12.18;;;;;;;12.98;81.43;101918.78;5015309;28;20567;-45
2022/06/02 07:02:40;;;;;;;18.10;13.50;;;;;;;12.91;81.52;101918.09;5014807;28;20048;-44
2022/06/02 07:05:20;;;;;;;17.60;11.57;;;;;;;12.93;81.53;101929.44;5012178;28;20037;-45
2022/06/02 07:08:00;;;;;;;19.38;10.70;;;;;;;12.93;80.70;101931.31;5013963;28;20037;-44
2022/06/02 07:10:35;;;;;;;12.95;10.50;;;;;;;12.95;80.49;101918.47;5018488;28;20471;-44
2022/06/02 07:13:22;;;;;;;13.95;10.40;;;;;;;13.06;80.54;101922.16;5013029;28;20250;-45
2022/06/02 07:15:48;;;;;;;14.43;10.60;;;;;;;13.10;80.14;101913.38;5012453;28;20368;-44
2022/06/02 07:18:13;;;;;;;14.45;10.52;;;;;;;13.20;80.27;101920.91;5011062;28;20025;-44
2022/06/02 07:20:42;;;;;;;16.48;10.80;;;;;;;13.25;79.58;101924.50;5010590;28;20037;-45
2022/06/02 07:23:29;;;;;;;13.48;10.23;;;;;;;13.29;79.02;101930.25;5012235;28;21480;-44
2022/06/02 07:26:07;;;;;;;13.18;7.72;;;;;;;13.26;78.57;101933.41;5011849;28;20041;-45
2022/06/02 07:28:50;;;;;;;12.25;8.10;;;;;;;13.38;78.39;101933.38;5014981;28;20419;-44
2022/06/02 07:31:19;;;;;;;20.73;9.05;;;;;;;13.44;78.18;101938.63;5012190;28;20026;-46
2022/06/02 07:34:09;;;;;;;15.32;9.88;;;;;;;13.53;77.89;101939.91;5014586;28;20033;-46
2022/06/02 07:37:20;;;;;;;13.38;9.82;;;;;;;13.61;77.98;101947.59;5014660;28;20113;-44
2022/06/02 07:40:15;;;;;;;16.52;10.02;;;;;;;13.57;77.94;101954.53;5012426;28;20383;-44
2022/06/02 07:43:07;;;;;;;12.93;9.05;;;;;;;13.55;76.61;101953.13;5020021;28;20498;-45
2022/06/02 07:45:51;;;;;;;12.07;9.15;;;;;;;13.66;76.71;101954.16;5020040;28;20037;-44
2022/06/02 07:48:37;;;;;;;11.48;8.40;;;;;;;13.67;76.51;101959.31;5013941;28;20103;-44
2022/06/02 07:51:40;;;;;;;9.88;7.50;;;;;;;13.50;74.85;101956.53;5014295;28;20022;-45
2022/06/02 07:54:34;;;;;;;9.40;7.28;;;;;;;13.63;75.35;101962.69;5018757;28;20075;-47
2022/06/02 07:57:28;;;;;;;9.77;8.20;;;;;;;13.80;74.71;101963.56;5014183;28;20293;-44
2022/06/02 08:00:02;;;;;;;10.90;7.93;;;;;;;13.82;73.76;101970.38;5021310;28;20483;-45
2022/06/02 08:03:06;;;;;;;8.93;7.88;;;;;;;13.92;73.95;101969.75;5013027;28;20033;-47
2022/06/02 08:05:44;;;;;;;8.52;7.22;;;;;;;14.04;73.55;101962.44;5013894;28;20662;-45
2022/06/02 08:08:35;;;;;;;9.07;7.93;;;;;;;14.16;72.79;101965.88;5017100;28;20434;-47
2022/06/02 08:11:20;;;;;;;12.10;7.78;;;;;;;14.19;72.42;101968.13;5012417;28;20033;-46
2022/06/02 08:13:53;;;;;;;8.32;7.20;;;;;;;14.20;71.76;101975.13;5016739;28;20049;-45
2022/06/02 08:16:46;;;;;;;11.38;7.20;;;;;;;14.23;70.51;101970.31;5012567;28;20029;-46
2022/06/02 08:19:17;;;;;;;8.73;6.60;;;;;;;14.23;70.09;101973.84;5012823;28;20145;-46
2022/06/02 08:21:52;;;;;;;8.73;6.07;;;;;;;14.24;68.54;101977.34;5014379;28;20036;-44
2022/06/02 08:24:51;;;;;;;8.18;5.75;;;;;;;14.45;69.27;101982.06;5020488;28;20038;-45
2022/06/02 08:27:41;;;;;;;8.63;5.97;;;;;;;14.57;68.47;101982.81;5011463;28;20068;-44
2022/06/02 08:30:23;;;;;;;7.15;5.82;;;;;;;14.59;68.70;101986.06;5011101;28;20025;-47
2022/06/02 08:33:00;;;;;;;7.05;5.65;;;;;;;14.70;69.51;101982.47;5018168;28;20021;-46
2022/06/02 08:35:40;;;;;;;6.55;5.35;;;;;;;14.76;67.18;101986.91;5013166;28;20275;-44
2022/06/02 08:38:10;;;;;;;10.15;6.00;;;;;;;14.91;66.73;101988.22;5014482;28;20121;-45
2022/06/02 08:40:41;;;;;;;8.18;6.15;;;;;;;14.93;66.74;101991.47;5015164;28;20066;-45
2022/06/02 08:43:37;;;;;;;10.20;6.32;;;;;;;14.80;66.58;101993.44;5011710;28;20022;-46
2022/06/02 08:46:27;;;;;;;9.90;6.65;;;;;;;14.76;67.10;101995.00;5019925;28;20074;-45
2022/06/02 08:49:14;;;;;;;8.98;6.07;;;;;;;14.75;68.54;101998.75;5012179;28;20116;-43
2022/06/02 08:51:49;;;;;;;7.90;5.60;;;;;;;14.85;65.09;101995.38;5014277;28;20049;-47
2022/06/02 08:54:33;;;;;;;8.57;5.40;;;;;;;15.09;64.32;101996.03;5010517;28;20018;-44
2022/06/02 08:57:32;;;;;;;5.93;4.75;;;;;;;15.29;64.15;102004.41;5012868;28;20034;-45
2022/06/02 09:00:13;;;;;;;5.60;4.70;;;;;;;15.48;62.25;102006.84;5019972;28;20033;-45
2022/06/02 09:03:12;;;;;;;5.57;4.65;;;;;;;15.40;58.80;102000.78;5010526;28;20030;-45
2022/06/02 09:06:01;;;;;;;4.85;4.35;;;;;;;15.40;59.75;102006.19;5019259;28;20502;-45
2022/06/02 09:08:45;;;;;;;8.02;4.30;;;;;;;15.42;60.32;102006.75;5014363;28;20435;-46
2022/06/02 09:11:29;;;;;;;5.30;4.57;;;;;;;15.48;60.72;102010.34;5011253;28;20018;-44
2022/06/02 09:14:16;;;;;;;6.05;4.40;;;;;;;15.64;60.72;102003.28;5019472;28;20025;-45
2022/06/02 09:16:57;;;;;;;6.13;4.57;;;;;;;15.98;61.95;102010.19;5014209;28;20034;-45
2022/06/02 09:20:00;;;;;;;6.20;4.10;;;;;;;16.36;61.57;102011.13;5021317;28;21492;-46
2022/06/02 09:22:33;;;;;;;5.90;4.13;;;;;;;16.62;60.97;102004.84;5016915;28;20048;-45
2022/06/02 09:25:21;;;;;;;5.35;3.58;;;;;;;16.56;58.80;102005.09;5021552;28;20200;-46
2022/06/02 09:28:05;;;;;;;6.30;3.72;;;;;;;16.56;58.81;102005.09;5018771;28;20029;-47
2022/06/02 09:31:03;;;;;;;3.75;3.25;;;;;;;16.68;56.08;102008.44;5016811;28;20030;-45
2022/06/02 09:33:54;;;;;;;5.28;3.70;;;;;;;16.69;55.76;102014.66;5021835;28;20105;-44
2022/06/02 09:36:37;;;;;;;4.03;3.38;;;;;;;16.68;56.68;102013.03;5017363;28;20033;-47
2022/06/02 09:39:22;;;;;;;3.60;2.85;;;;;;;16.52;55.01;102014.78;5013288;28;20146;-46
2022/06/02 09:42:11;;;;;;;5.80;3.00;;;;;;;16.52;54.21;102012.91;5021316;28;20641;-46
2022/06/02 09:44:56;;;;;;;3.13;2.83;;;;;;;16.81;54.97;102018.03;5012516;28;20032;-45
2022/06/02 09:47:49;;;;;;;4.03;2.80;;;;;;;16.91;53.60;102018.13;5021141;28;20034;-46
2022/06/02 09:50:36;;;;;;;6.93;2.72;;;;;;;17.00;52.66;102016.53;5016169;28;20045;-47
2022/06/02 09:53:02;;;;;;;4.38;2.80;;;;;;;17.00;53.90;102023.84;5012748;28;20107;-47
2022/06/02 09:55:58;;;;;;;5.47;2.38;;;;;;;16.83;52.54;102021.28;5016320;28;20026;-47
2022/06/02 09:58:43;;;;;;;2.40;2.20;;;;;;;16.73;52.93;102022.03;5012921;28;20042;-47
2022/06/02 10:01:13;;;;;;;5.40;2.25;;;;;;;16.71;53.11;102023.38;5021455;28;20017;-47
2022/06/02 10:03:53;;;;;;;4.32;2.30;;;;;;;16.82;53.89;102030.47;5014293;28;20520;-47
2022/06/02 10:06:47;;;;;;;3.05;2.22;;;;;;;16.87;52.18;102028.63;5016222;28;20030;-47
2022/06/02 10:09:34;;;;;;;4.63;2.60;;;;;;;17.01;51.24;102029.00;5017390;28;20044;-46
2022/06/02 10:15:29;;;;;;;4.93;1.77;;;;;;;17.29;51.67;102018.91;5023453;28;20180;-49
2022/06/02 10:17:58;;;;;;;4.47;2.00;;;;;;;17.52;52.25;102024.72;5016884;28;20033;-47
2022/06/02 10:20:41;;;;;;;5.43;2.15;;;;;;;17.74;52.51;102024.56;5016315;28;20037;-46
2022/06/02 10:23:16;;;;;;;3.03;1.80;;;;;;;17.83;49.90;102024.88;5016023;28;20056;-47
2022/06/02 10:26:09;;;;;;;2.03;1.67;;;;;;;17.76;50.13;102021.59;5016952;28;20124;-49
2022/06/02 10:28:53;;;;;;;3.13;2.08;;;;;;;17.49;48.79;102030.66;5021027;28;20466;-46
2022/06/02 10:31:55;;;;;;;1.98;1.73;;;;;;;17.10;49.40;102034.75;5013451;28;20625;-48
2022/06/02 10:34:41;;;;;;;3.25;1.75;;;;;;;16.93;51.53;102040.31;5015369;28;20464;-47
2022/06/02 10:37:29;;;;;;;2.38;1.83;;;;;;;16.71;51.79;102039.59;5017995;28;20033;-47
2022/06/02 10:40:09;;;;;;;3.20;2.00;;;;;;;16.61;51.94;102043.81;5011624;28;20056;-47
2022/06/02 10:43:01;;;;;;;3.28;1.98;;;;;;;16.76;52.75;102032.34;5017989;28;20033;-49
2022/06/02 10:45:46;;;;;;;6.95;2.40;;;;;;;17.08;52.13;102039.63;5012419;28;20108;-47
2022/06/02 10:48:30;;;;;;;2.13;1.70;;;;;;;17.37;50.35;102023.81;5015414;28;20522;-47
2022/06/02 10:50:59;;;;;;;2.50;1.60;;;;;;;17.56;48.75;102035.03;5017681;28;20033;-48
2022/06/02 10:53:27;;;;;;;2.70;1.65;;;;;;;17.53;46.72;102029.06;5015773;28;20383;-46
2022/06/02 10:56:02;;;;;;;3.60;1.70;;;;;;;17.68;46.38;102044.59;5017191;28;20037;-47
2022/06/02 10:59:19;;;;;;;2.78;1.50;;;;;;;17.66;46.03;102035.09;5013344;28;20041;-46
2022/06/02 11:02:08;;;;;;;3.85;2.00;;;;;;;17.52;46.52;102046.41;4966979;28;20065;-48
2022/06/02 11:04:52;;;;;;;3.75;1.83;;;;;;;17.61;47.66;102054.84;4997579;28;20136;-46
2022/06/02 11:07:27;;;;;;;2.05;1.60;;;;;;;17.57;47.36;102048.31;5015963;28;20034;-46
2022/06/02 11:10:13;;;;;;;2.05;1.80;;;;;;;17.39;48.55;102068.53;5018382;28;20143;-48
2022/06/02 11:12:48;;;;;;;2.55;1.05;;;;;;;17.33;45.31;102055.22;5012513;28;20076;-47
2022/06/02 11:15:51;;;;;;;2.78;1.88;;;;;;;17.56;43.87;102057.53;5018921;28;20056;-48
2022/06/02 11:19:01;;;;;;;2.35;1.13;;;;;;;17.41;43.06;102066.38;5013947;28;20033;-48
2022/06/02 11:21:48;;;;;;;1.65;1.30;;;;;;;17.60;45.06;102055.94;5015311;28;20119;-47
2022/06/02 11:24:51;;;;;;;1.75;1.00;;;;;;;17.87;45.61;102055.81;5013979;28;20041;-48
2022/06/02 11:27:20;;;;;;;1.75;1.10;;;;;;;18.17;44.01;102057.81;5012556;28;20041;-47
2022/06/02 11:30:06;;;;;;;1.48;1.00;;;;;;;18.41;43.33;102058.94;5019407;28;20426;-47
2022/06/02 11:33:17;;;;;;;3.10;1.05;;;;;;;18.40;43.59;102060.03;5014541;28;20667;-48
2022/06/02 11:36:00;;;;;;;2.08;1.13;;;;;;;18.44;44.99;102060.31;4938350;29;20118;-47
2022/06/02 11:38:35;;;;;;;3.08;1.20;;;;;;;18.36;45.05;102066.28;4940610;29;20971;-46
2022/06/02 11:41:30;;;;;;;1.40;1.00;;;;;;;17.97;44.00;102074.03;4988055;28;20120;-47
2022/06/02 11:44:28;;;;;;;1.17;1.00;;;;;;;17.97;45.12;102068.59;5014584;28;20037;-48
2022/06/02 11:46:53;;;;;;;2.22;1.20;;;;;;;18.11;45.19;102069.72;5011414;28;20037;-50
2022/06/02 11:49:40;;;;;;;2.38;1.10;;;;;;;18.25;45.93;102068.13;5010761;28;20112;-47
2022/06/02 11:52:24;;;;;;;2.30;0.90;;;;;;;18.37;41.11;102057.88;5013993;28;20033;-48
2022/06/02 11:55:01;;;;;;;2.28;1.13;;;;;;;18.62;42.20;102064.41;5015798;28;20113;-47
2022/06/02 11:57:50;;;;;;;5.15;1.20;;;;;;;18.93;41.66;102060.66;5018953;28;20106;-50
2022/06/02 12:00:41;;;;;;;1.75;0.80;;;;;;;19.12;40.77;102058.19;5013447;28;20037;-48
2022/06/02 12:03:28;;;;;;;1.35;1.13;;;;;;;18.98;40.01;102057.94;5009334;28;20026;-49
2022/06/02 12:06:06;;;;;;;2.22;0.98;;;;;;;18.92;41.69;102069.06;5018650;28;20376;-47
2022/06/02 12:09:03;;;;;;;2.53;0.80;;;;;;;18.91;40.76;102079.13;5009823;28;20084;-48
2022/06/02 12:11:32;;;;;;;3.25;0.88;;;;;;;18.82;41.45;102069.88;5019293;28;20029;-48
2022/06/02 12:14:22;;;;;;;2.22;0.80;;;;;;;18.50;41.12;102066.56;5012839;28;20022;-47
2022/06/02 12:16:56;;;;;;;1.08;0.90;;;;;;;18.70;40.76;102066.63;5013677;28;20061;-47
2022/06/02 12:19:37;;;;;;;1.67;0.70;;;;;;;18.92;40.75;102069.88;5014051;28;20427;-47
2022/06/02 12:22:36;;;;;;;1.38;1.15;;;;;;;18.76;39.95;102070.16;5012312;28;20033;-49
2022/06/02 12:25:26;;;;;;;1.77;0.90;;;;;;;18.61;41.08;102069.00;5021308;28;20513;-47
2022/06/02 12:28:16;;;;;;;1.92;0.70;;;;;;;19.02;42.25;102069.88;5014966;28;20084;-48
2022/06/02 12:30:51;;;;;;;3.40;1.10;;;;;;;19.37;40.15;102065.47;5014798;28;20680;-48
2022/06/02 12:33:16;;;;;;;;;;;;;;;19.59;39.27;102068.75;5014571;28;20700;-48
2022/06/02 12:35:59;;;;;;;1.63;0.80;;;;;;;19.83;38.01;102068.91;5013750;28;19957;-49
2022/06/02 12:38:43;;;;;;;2.33;1.23;;;;;;;20.11;38.28;102070.16;5015841;28;20033;-47
2022/06/02 12:41:27;;;;;;;1.02;0.70;;;;;;;20.35;38.42;102069.47;5012719;28;20074;-47
2022/06/02 12:44:38;;;;;;;1.57;1.10;;;;;;;20.29;37.55;102076.03;5015067;28;20033;-47
2022/06/02 12:47:13;;;;;;;0.75;0.75;;;;;;;19.85;37.74;102076.78;5016707;28;20035;-50
2022/06/02 12:50:01;;;;;;;1.80;0.80;;;;;;;19.64;38.69;102077.97;5014294;28;20032;-47
2022/06/02 12:52:42;;;;;;;3.97;1.52;;;;;;;19.83;38.52;102068.91;5011685;28;20041;-47